A80 TRACON Summary / KATL TAF
ATL TRACON Summary:
High pressure is moving into the airspace from the west. Expect VFR conditions with mostly clear skies by morning. Surface winds will be from the northwest to north at 5-15kts. Hazards outside convection: are not expected in the TRACON airspace.

Updated:4/15/2014 8:05 PM
ATL Terminal Aerodrome Forecast:

FTUS80 KATL 160530
KATL 160528Z 1606/1712 34009KT P6SM SKC
     FM160900 02009KT P6SM SKC
     FM161200 06010KT P6SM SKC
     FM161500 10011G18KT P6SM SCT250
     FM170000 10009KT P6SM SCT250
ATL TRACON Area Remark:
None.
Convective Gate Forecast / Collaborative Convective Forecast Product / Vertical Wind Profile
Convective Gate Forecast
SIGMETS/ Southeast Radar & Satellite Loops (click on image to enlarge)

Southeast Radar Loop

 



USA.gov is the U.S. government's official web portal to all federal, state and local government web resources and services.